AXB318 VOHS-VAPO
Flight info
| Callsign | AXB318 |
|---|---|
| Flight time | 0h 50m |
| Altitude | 34000 |
| Route | TAMIV5 GODEP W28 LUKTI |
| Aircraft | B38M/M-SDE1FGHILORVWXY/HB1 |
Departure
| Time | 2026-05-04 09:18 |
|---|---|
| Airport | Rajiv Gandhi International Airport (VOHS) |
Arrival
| Time | 2026-05-04 10:08 |
|---|---|
| Airport | Pune International Airport (VAPO) |
| Time | Latitude | Longitude | Altitude | Speed | Heading |
|---|---|---|---|---|---|
| 2026-05-04 08:57 | 17.23416 | 78.43163 | 0 ft | 0 kts | 360° |
| 2026-05-04 09:08 | 17.23411 | 78.43163 | 2009 ft | 2 kts | 359° |
| 2026-05-04 09:08 | 17.23394 | 78.43163 | 1984 ft | 2 kts | 359° |
| 2026-05-04 09:08 | 17.23378 | 78.43163 | 1983 ft | 2 kts | 344° |
| 2026-05-04 09:08 | 17.23367 | 78.43175 | 1983 ft | 2 kts | 287° |
| 2026-05-04 09:09 | 17.23364 | 78.43192 | 1982 ft | 2 kts | 275° |
| 2026-05-04 09:09 | 17.23363 | 78.43209 | 1982 ft | 2 kts | 271° |
| 2026-05-04 09:09 | 17.23363 | 78.43215 | 1982 ft | 0 kts | 270° |
| 2026-05-04 09:11 | 17.23363 | 78.43211 | 1982 ft | 2 kts | 270° |
| 2026-05-04 09:11 | 17.23359 | 78.43188 | 1983 ft | 5 kts | 249° |
| 2026-05-04 09:12 | 17.23326 | 78.43162 | 1982 ft | 8 kts | 190° |
| 2026-05-04 09:12 | 17.23264 | 78.43169 | 1983 ft | 11 kts | 147° |
| 2026-05-04 09:14 | 17.23261 | 78.44204 | 1984 ft | 31 kts | 89° |
| 2026-05-04 09:14 | 17.23256 | 78.44345 | 1987 ft | 15 kts | 115° |
| 2026-05-04 09:14 | 17.23156 | 78.44368 | 1984 ft | 17 kts | 179° |
| 2026-05-04 09:14 | 17.23102 | 78.44461 | 1983 ft | 19 kts | 90° |
| 2026-05-04 09:15 | 17.23104 | 78.44609 | 1983 ft | 22 kts | 89° |
| 2026-05-04 09:15 | 17.23107 | 78.44784 | 1982 ft | 26 kts | 89° |
| 2026-05-04 09:15 | 17.23058 | 78.44928 | 1983 ft | 13 kts | 174° |
| 2026-05-04 09:15 | 17.22955 | 78.44921 | 1983 ft | 16 kts | 199° |
| 2026-05-04 09:17 | 17.22772 | 78.39140 | 2568 ft | 182 kts | 267° |
| 2026-05-04 09:18 | 17.22719 | 78.38194 | 2845 ft | 204 kts | 271° |
| 2026-05-04 09:18 | 17.22730 | 78.36779 | 4133 ft | 189 kts | 271° |
| 2026-05-04 09:18 | 17.22735 | 78.35382 | 5005 ft | 197 kts | 271° |
| 2026-05-04 09:18 | 17.22730 | 78.33895 | 5716 ft | 212 kts | 270° |
| 2026-05-04 09:19 | 17.22834 | 78.32293 | 6402 ft | 230 kts | 284° |
| 2026-05-04 09:19 | 17.23313 | 78.30630 | 7083 ft | 246 kts | 287° |
| 2026-05-04 09:19 | 17.23830 | 78.28847 | 7745 ft | 265 kts | 287° |
| 2026-05-04 09:19 | 17.24369 | 78.26988 | 8646 ft | 273 kts | 287° |
| 2026-05-04 09:20 | 17.24937 | 78.25038 | 9415 ft | 288 kts | 287° |
| 2026-05-04 09:20 | 17.25528 | 78.23000 | 10276 ft | 295 kts | 287° |
| 2026-05-04 09:20 | 17.26136 | 78.20913 | 11054 ft | 306 kts | 286° |
| 2026-05-04 09:20 | 17.26772 | 78.18730 | 11713 ft | 320 kts | 286° |
| 2026-05-04 09:21 | 17.27432 | 78.16461 | 12475 ft | 328 kts | 286° |
| 2026-05-04 09:21 | 17.28097 | 78.14173 | 13410 ft | 332 kts | 285° |
| 2026-05-04 09:21 | 17.28780 | 78.11828 | 14124 ft | 340 kts | 285° |
| 2026-05-04 09:21 | 17.29461 | 78.09488 | 14963 ft | 341 kts | 286° |
| 2026-05-04 09:22 | 17.30155 | 78.07100 | 15717 ft | 346 kts | 286° |
| 2026-05-04 09:22 | 17.30857 | 78.04682 | 16471 ft | 349 kts | 286° |
| 2026-05-04 09:22 | 17.31567 | 78.02237 | 17240 ft | 353 kts | 287° |
| 2026-05-04 09:22 | 17.32286 | 77.99759 | 17975 ft | 356 kts | 287° |
| 2026-05-04 09:23 | 17.33007 | 77.97266 | 18626 ft | 360 kts | 287° |
| 2026-05-04 09:23 | 17.33734 | 77.94754 | 19265 ft | 362 kts | 287° |
| 2026-05-04 09:23 | 17.34468 | 77.92221 | 19906 ft | 364 kts | 286° |
| 2026-05-04 09:23 | 17.35205 | 77.89673 | 20522 ft | 367 kts | 286° |
| 2026-05-04 09:25 | 17.39334 | 77.75387 | 23644 ft | 383 kts | 285° |
| 2026-05-04 09:25 | 17.39386 | 77.75206 | 23674 ft | 383 kts | 285° |
| 2026-05-04 09:26 | 17.39956 | 77.73231 | 23999 ft | 385 kts | 285° |
| 2026-05-04 09:26 | 17.40728 | 77.70555 | 24463 ft | 387 kts | 285° |
| 2026-05-04 09:26 | 17.41505 | 77.67858 | 24913 ft | 389 kts | 285° |
| 2026-05-04 09:26 | 17.42293 | 77.65120 | 25361 ft | 391 kts | 285° |
| 2026-05-04 09:27 | 17.43081 | 77.62385 | 25843 ft | 393 kts | 285° |
| 2026-05-04 09:27 | 17.43830 | 77.59667 | 26270 ft | 395 kts | 281° |
| 2026-05-04 09:27 | 17.44204 | 77.56783 | 26711 ft | 395 kts | 276° |
| 2026-05-04 09:27 | 17.44566 | 77.53964 | 27112 ft | 398 kts | 276° |
| 2026-05-04 09:28 | 17.44945 | 77.51047 | 27539 ft | 400 kts | 276° |
| 2026-05-04 09:28 | 17.45313 | 77.48189 | 27972 ft | 402 kts | 276° |
| 2026-05-04 09:28 | 17.45686 | 77.45276 | 28402 ft | 404 kts | 276° |
| 2026-05-04 09:28 | 17.46059 | 77.42355 | 28799 ft | 406 kts | 276° |
| 2026-05-04 09:29 | 17.46435 | 77.39403 | 29191 ft | 409 kts | 276° |
| 2026-05-04 09:29 | 17.46812 | 77.36449 | 29584 ft | 411 kts | 276° |
| 2026-05-04 09:29 | 17.47190 | 77.33473 | 29948 ft | 413 kts | 276° |
| 2026-05-04 09:29 | 17.47570 | 77.30486 | 30258 ft | 415 kts | 276° |
| 2026-05-04 09:30 | 17.47952 | 77.27483 | 30569 ft | 417 kts | 276° |
| 2026-05-04 09:30 | 17.48334 | 77.24466 | 30877 ft | 419 kts | 276° |
| 2026-05-04 09:30 | 17.48719 | 77.21431 | 31180 ft | 421 kts | 276° |
| 2026-05-04 09:30 | 17.49104 | 77.18385 | 31479 ft | 423 kts | 276° |
| 2026-05-04 09:31 | 17.49490 | 77.15325 | 31778 ft | 425 kts | 276° |
| 2026-05-04 09:31 | 17.49878 | 77.12253 | 32064 ft | 427 kts | 276° |
| 2026-05-04 09:31 | 17.50268 | 77.09159 | 32363 ft | 429 kts | 276° |
| 2026-05-04 09:31 | 17.50647 | 77.06145 | 32722 ft | 429 kts | 276° |
| 2026-05-04 09:32 | 17.51035 | 77.03058 | 33137 ft | 428 kts | 277° |
| 2026-05-04 09:32 | 17.51419 | 77.00001 | 33520 ft | 427 kts | 277° |
| 2026-05-04 09:34 | 17.54040 | 76.79007 | 33853 ft | 423 kts | 277° |
| 2026-05-04 09:34 | 17.54416 | 76.75987 | 33855 ft | 423 kts | 277° |
| 2026-05-04 09:34 | 17.55176 | 76.69866 | 33855 ft | 423 kts | 277° |
| 2026-05-04 09:35 | 17.56179 | 76.63787 | 33855 ft | 424 kts | 280° |
| 2026-05-04 09:35 | 17.57274 | 76.57717 | 33850 ft | 423 kts | 280° |
| 2026-05-04 09:37 | 17.61557 | 76.33486 | 33843 ft | 423 kts | 280° |
| 2026-05-04 09:38 | 17.62625 | 76.27415 | 33841 ft | 423 kts | 280° |
| 2026-05-04 09:38 | 17.63690 | 76.21349 | 33836 ft | 423 kts | 280° |
| 2026-05-04 09:39 | 17.64751 | 76.15294 | 33837 ft | 422 kts | 280° |
| 2026-05-04 09:39 | 17.65812 | 76.09231 | 33830 ft | 422 kts | 280° |
| 2026-05-04 09:40 | 17.66869 | 76.03178 | 33833 ft | 422 kts | 280° |
| 2026-05-04 09:40 | 17.68601 | 75.97346 | 33842 ft | 422 kts | 296° |
| 2026-05-04 09:42 | 17.78423 | 75.74984 | 33820 ft | 416 kts | 293° |
| 2026-05-04 09:43 | 17.79630 | 75.72238 | 33692 ft | 403 kts | 293° |
| 2026-05-04 09:43 | 17.80775 | 75.69634 | 33499 ft | 393 kts | 293° |
| 2026-05-04 09:43 | 17.81916 | 75.67036 | 33057 ft | 390 kts | 293° |
| 2026-05-04 09:43 | 17.83048 | 75.64459 | 32532 ft | 389 kts | 293° |
| 2026-05-04 09:44 | 17.84177 | 75.61887 | 32054 ft | 387 kts | 293° |
| 2026-05-04 09:44 | 17.85297 | 75.59335 | 31600 ft | 384 kts | 293° |
| 2026-05-04 09:44 | 17.86415 | 75.56787 | 31146 ft | 382 kts | 293° |
| 2026-05-04 09:46 | 17.94019 | 75.39424 | 28279 ft | 359 kts | 292° |
| 2026-05-04 09:46 | 17.95064 | 75.37034 | 27843 ft | 362 kts | 292° |
| 2026-05-04 09:46 | 17.96116 | 75.34627 | 27405 ft | 362 kts | 292° |
| 2026-05-04 09:47 | 17.97165 | 75.32226 | 26980 ft | 361 kts | 292° |
| 2026-05-04 09:47 | 17.98212 | 75.29828 | 26555 ft | 360 kts | 292° |
| 2026-05-04 09:49 | 18.05416 | 75.13305 | 23598 ft | 353 kts | 292° |
| 2026-05-04 09:49 | 18.06437 | 75.10959 | 23151 ft | 353 kts | 292° |
| 2026-05-04 09:49 | 18.07457 | 75.08617 | 22670 ft | 351 kts | 292° |
| 2026-05-04 09:51 | 18.13413 | 74.94911 | 20231 ft | 336 kts | 293° |
| 2026-05-04 09:51 | 18.14375 | 74.92694 | 19850 ft | 334 kts | 293° |
| 2026-05-04 09:51 | 18.15337 | 74.90478 | 19460 ft | 330 kts | 293° |
| 2026-05-04 09:51 | 18.16274 | 74.88315 | 19075 ft | 329 kts | 294° |
| 2026-05-04 09:52 | 18.17220 | 74.86134 | 18689 ft | 327 kts | 294° |
| 2026-05-04 09:52 | 18.18162 | 74.83961 | 18294 ft | 326 kts | 294° |
| 2026-05-04 09:52 | 18.19102 | 74.81790 | 17889 ft | 325 kts | 294° |
| 2026-05-04 09:52 | 18.20037 | 74.79631 | 17463 ft | 324 kts | 294° |
| 2026-05-04 09:53 | 18.20967 | 74.77482 | 17060 ft | 321 kts | 294° |
| 2026-05-04 09:53 | 18.21890 | 74.75349 | 16673 ft | 319 kts | 294° |
| 2026-05-04 09:53 | 18.22806 | 74.73233 | 16290 ft | 316 kts | 294° |
| 2026-05-04 09:53 | 18.23714 | 74.71134 | 15912 ft | 314 kts | 294° |
| 2026-05-04 09:54 | 18.24733 | 74.69104 | 15465 ft | 314 kts | 302° |
| 2026-05-04 09:54 | 18.25882 | 74.67166 | 15111 ft | 311 kts | 301° |
| 2026-05-04 09:54 | 18.27004 | 74.65228 | 14747 ft | 309 kts | 300° |
| 2026-05-04 09:54 | 18.28110 | 74.63297 | 14382 ft | 307 kts | 300° |
| 2026-05-04 09:55 | 18.29205 | 74.61373 | 14010 ft | 305 kts | 300° |
| 2026-05-04 09:55 | 18.30290 | 74.59460 | 13643 ft | 303 kts | 299° |
| 2026-05-04 09:55 | 18.31369 | 74.57557 | 13219 ft | 302 kts | 300° |
| 2026-05-04 09:55 | 18.32437 | 74.55668 | 12831 ft | 300 kts | 300° |
| 2026-05-04 09:56 | 18.33501 | 74.53787 | 12451 ft | 297 kts | 300° |
| 2026-05-04 09:56 | 18.34552 | 74.51929 | 12092 ft | 294 kts | 300° |
| 2026-05-04 09:56 | 18.35596 | 74.50081 | 11728 ft | 293 kts | 300° |
| 2026-05-04 09:56 | 18.36634 | 74.48244 | 11368 ft | 291 kts | 300° |
| 2026-05-04 09:57 | 18.37665 | 74.46416 | 10996 ft | 289 kts | 301° |
| 2026-05-04 09:57 | 18.38692 | 74.44598 | 10646 ft | 288 kts | 301° |
| 2026-05-04 09:57 | 18.39712 | 74.42791 | 10283 ft | 286 kts | 301° |
| 2026-05-04 09:57 | 18.40726 | 74.40994 | 9946 ft | 285 kts | 302° |
| 2026-05-04 09:58 | 18.41717 | 74.39237 | 9653 ft | 282 kts | 302° |
| 2026-05-04 09:58 | 18.42716 | 74.37466 | 9262 ft | 281 kts | 302° |
| 2026-05-04 09:58 | 18.43712 | 74.35699 | 8889 ft | 279 kts | 302° |
| 2026-05-04 10:00 | 18.50492 | 74.23659 | 6566 ft | 264 kts | 300° |
| 2026-05-04 10:00 | 18.51412 | 74.22021 | 6418 ft | 255 kts | 300° |
| 2026-05-04 10:02 | 18.56763 | 74.12415 | 5445 ft | 178 kts | 289° |
| 2026-05-04 10:04 | 18.57474 | 74.04114 | 3919 ft | 166 kts | 274° |
| 2026-05-04 10:04 | 18.57549 | 74.02898 | 3724 ft | 166 kts | 274° |
| 2026-05-04 10:04 | 18.57625 | 74.01706 | 3479 ft | 157 kts | 274° |
| 2026-05-04 10:04 | 18.57692 | 74.00577 | 3265 ft | 152 kts | 276° |
| 2026-05-04 10:05 | 18.57757 | 73.99524 | 3112 ft | 137 kts | 275° |
| 2026-05-04 10:05 | 18.57819 | 73.98544 | 2924 ft | 132 kts | 272° |
| 2026-05-04 10:05 | 18.57887 | 73.97569 | 2765 ft | 136 kts | 270° |
| 2026-05-04 10:05 | 18.57936 | 73.96572 | 2568 ft | 136 kts | 274° |
| 2026-05-04 10:06 | 18.58004 | 73.95564 | 2476 ft | 138 kts | 274° |
| 2026-05-04 10:06 | 18.58063 | 73.94575 | 2280 ft | 133 kts | 273° |
| 2026-05-04 10:06 | 18.58131 | 73.93601 | 2056 ft | 135 kts | 274° |
| 2026-05-04 10:08 | 18.58018 | 73.91011 | 1925 ft | 7 kts | 189° |
| 2026-05-04 10:08 | 18.57997 | 73.91007 | 1925 ft | 0 kts | 189° |